sensor_id;sensor_type;location;lat;lon;timestamp;P1;durP1;ratioP1;P2;durP2;ratioP2
19049;SDS011;9657;45.940;12.840;2022-07-12T00:00:11;2.35;;;1.55;;
19049;SDS011;9657;45.940;12.840;2022-07-12T00:02:38;2.30;;;1.65;;
19049;SDS011;9657;45.940;12.840;2022-07-12T00:05:05;2.25;;;1.52;;
19049;SDS011;9657;45.940;12.840;2022-07-12T00:07:35;3.40;;;1.90;;
19049;SDS011;9657;45.940;12.840;2022-07-12T00:10:03;2.60;;;1.63;;
19049;SDS011;9657;45.940;12.840;2022-07-12T00:12:31;2.67;;;1.52;;
19049;SDS011;9657;45.940;12.840;2022-07-12T00:14:58;2.40;;;1.52;;
19049;SDS011;9657;45.940;12.840;2022-07-12T00:17:25;1.60;;;1.50;;
19049;SDS011;9657;45.940;12.840;2022-07-12T00:19:52;3.33;;;1.73;;
19049;SDS011;9657;45.940;12.840;2022-07-12T00:22:19;2.08;;;1.60;;
19049;SDS011;9657;45.940;12.840;2022-07-12T00:24:49;2.05;;;1.58;;
19049;SDS011;9657;45.940;12.840;2022-07-12T00:27:16;2.95;;;2.10;;
19049;SDS011;9657;45.940;12.840;2022-07-12T00:29:43;2.25;;;1.42;;
19049;SDS011;9657;45.940;12.840;2022-07-12T00:32:10;2.35;;;1.55;;
19049;SDS011;9657;45.940;12.840;2022-07-12T00:34:37;2.08;;;1.40;;
19049;SDS011;9657;45.940;12.840;2022-07-12T00:37:04;1.67;;;1.50;;
19049;SDS011;9657;45.940;12.840;2022-07-12T00:39:31;1.95;;;1.77;;
19049;SDS011;9657;45.940;12.840;2022-07-12T00:42:00;3.78;;;1.52;;
19049;SDS011;9657;45.940;12.840;2022-07-12T00:44:27;3.50;;;1.70;;
19049;SDS011;9657;45.940;12.840;2022-07-12T00:46:56;1.70;;;1.55;;
19049;SDS011;9657;45.940;12.840;2022-07-12T00:49:23;2.80;;;1.45;;
19049;SDS011;9657;45.940;12.840;2022-07-12T00:51:51;2.35;;;1.40;;
19049;SDS011;9657;45.940;12.840;2022-07-12T00:54:19;1.70;;;1.48;;
19049;SDS011;9657;45.940;12.840;2022-07-12T00:56:46;3.38;;;1.75;;
19049;SDS011;9657;45.940;12.840;2022-07-12T00:59:15;1.75;;;1.55;;
19049;SDS011;9657;45.940;12.840;2022-07-12T01:04:17;2.20;;;1.55;;
19049;SDS011;9657;45.940;12.840;2022-07-12T01:06:44;1.55;;;1.40;;
19049;SDS011;9657;45.940;12.840;2022-07-12T01:09:12;2.33;;;1.90;;
19049;SDS011;9657;45.940;12.840;2022-07-12T01:11:39;2.15;;;1.67;;
19049;SDS011;9657;45.940;12.840;2022-07-12T01:14:07;2.45;;;1.55;;
19049;SDS011;9657;45.940;12.840;2022-07-12T01:16:37;1.98;;;1.63;;
19049;SDS011;9657;45.940;12.840;2022-07-12T01:19:05;1.67;;;1.58;;
19049;SDS011;9657;45.940;12.840;2022-07-12T01:21:33;3.20;;;1.77;;
19049;SDS011;9657;45.940;12.840;2022-07-12T01:24:05;3.38;;;1.92;;
19049;SDS011;9657;45.940;12.840;2022-07-12T01:26:34;1.80;;;1.40;;
19049;SDS011;9657;45.940;12.840;2022-07-12T01:29:01;4.72;;;1.70;;
19049;SDS011;9657;45.940;12.840;2022-07-12T01:31:29;1.83;;;1.40;;
19049;SDS011;9657;45.940;12.840;2022-07-12T01:33:56;1.67;;;1.58;;
19049;SDS011;9657;45.940;12.840;2022-07-12T01:36:24;2.83;;;1.55;;
19049;SDS011;9657;45.940;12.840;2022-07-12T01:38:51;2.47;;;1.60;;
19049;SDS011;9657;45.940;12.840;2022-07-12T01:41:19;3.42;;;1.60;;
19049;SDS011;9657;45.940;12.840;2022-07-12T01:43:48;1.60;;;1.50;;
19049;SDS011;9657;45.940;12.840;2022-07-12T01:46:16;2.50;;;1.90;;
19049;SDS011;9657;45.940;12.840;2022-07-12T01:48:43;1.40;;;1.30;;
19049;SDS011;9657;45.940;12.840;2022-07-12T01:51:10;2.05;;;1.60;;
19049;SDS011;9657;45.940;12.840;2022-07-12T01:53:37;1.60;;;1.45;;
19049;SDS011;9657;45.940;12.840;2022-07-12T01:56:04;2.20;;;1.50;;
19049;SDS011;9657;45.940;12.840;2022-07-12T01:58:33;1.77;;;1.38;;
19049;SDS011;9657;45.940;12.840;2022-07-12T02:01:01;2.75;;;1.83;;
19049;SDS011;9657;45.940;12.840;2022-07-12T02:03:28;2.53;;;1.45;;
19049;SDS011;9657;45.940;12.840;2022-07-12T02:05:55;2.38;;;1.50;;
19049;SDS011;9657;45.940;12.840;2022-07-12T02:08:22;2.08;;;1.77;;
19049;SDS011;9657;45.940;12.840;2022-07-12T02:10:49;3.80;;;1.75;;
19049;SDS011;9657;45.940;12.840;2022-07-12T02:13:16;2.45;;;1.50;;
19049;SDS011;9657;45.940;12.840;2022-07-12T02:15:44;1.75;;;1.48;;
19049;SDS011;9657;45.940;12.840;2022-07-12T02:18:11;1.70;;;1.60;;
19049;SDS011;9657;45.940;12.840;2022-07-12T02:20:39;1.60;;;1.50;;
19049;SDS011;9657;45.940;12.840;2022-07-12T02:23:05;2.10;;;1.50;;
19049;SDS011;9657;45.940;12.840;2022-07-12T02:25:33;2.42;;;1.55;;
19049;SDS011;9657;45.940;12.840;2022-07-12T02:28:00;1.80;;;1.52;;
19049;SDS011;9657;45.940;12.840;2022-07-12T02:30:27;1.67;;;1.52;;
19049;SDS011;9657;45.940;12.840;2022-07-12T02:32:55;3.22;;;1.73;;
19049;SDS011;9657;45.940;12.840;2022-07-12T02:35:22;1.20;;;1.10;;
19049;SDS011;9657;45.940;12.840;2022-07-12T02:37:50;4.13;;;1.70;;
19049;SDS011;9657;45.940;12.840;2022-07-12T02:40:17;2.22;;;1.85;;
19049;SDS011;9657;45.940;12.840;2022-07-12T02:43:01;2.05;;;1.85;;
19049;SDS011;9657;45.940;12.840;2022-07-12T02:45:28;1.58;;;1.48;;
19049;SDS011;9657;45.940;12.840;2022-07-12T02:47:57;1.50;;;1.40;;
19049;SDS011;9657;45.940;12.840;2022-07-12T02:50:24;1.38;;;1.27;;
19049;SDS011;9657;45.940;12.840;2022-07-12T02:52:51;1.70;;;1.60;;
19049;SDS011;9657;45.940;12.840;2022-07-12T02:55:18;2.10;;;1.70;;
19049;SDS011;9657;45.940;12.840;2022-07-12T02:57:45;2.88;;;1.50;;
19049;SDS011;9657;45.940;12.840;2022-07-12T03:00:14;3.25;;;1.88;;
19049;SDS011;9657;45.940;12.840;2022-07-12T03:02:41;2.65;;;1.63;;
19049;SDS011;9657;45.940;12.840;2022-07-12T03:05:10;2.10;;;1.55;;
19049;SDS011;9657;45.940;12.840;2022-07-12T03:07:37;2.03;;;1.73;;
19049;SDS011;9657;45.940;12.840;2022-07-12T03:10:04;2.08;;;1.88;;
19049;SDS011;9657;45.940;12.840;2022-07-12T03:12:32;1.95;;;1.70;;
19049;SDS011;9657;45.940;12.840;2022-07-12T03:14:59;2.03;;;1.73;;
19049;SDS011;9657;45.940;12.840;2022-07-12T03:17:27;1.77;;;1.58;;
19049;SDS011;9657;45.940;12.840;2022-07-12T03:19:54;1.70;;;1.60;;
19049;SDS011;9657;45.940;12.840;2022-07-12T03:22:22;1.73;;;1.63;;
19049;SDS011;9657;45.940;12.840;2022-07-12T03:24:50;1.70;;;1.42;;
19049;SDS011;9657;45.940;12.840;2022-07-12T03:27:17;4.05;;;1.80;;
19049;SDS011;9657;45.940;12.840;2022-07-12T03:29:44;3.05;;;2.15;;
19049;SDS011;9657;45.940;12.840;2022-07-12T03:32:11;1.80;;;1.70;;
19049;SDS011;9657;45.940;12.840;2022-07-12T03:34:38;1.80;;;1.50;;
19049;SDS011;9657;45.940;12.840;2022-07-12T03:37:05;1.80;;;1.70;;
19049;SDS011;9657;45.940;12.840;2022-07-12T03:39:33;2.00;;;1.77;;
19049;SDS011;9657;45.940;12.840;2022-07-12T03:42:00;1.63;;;1.50;;
19049;SDS011;9657;45.940;12.840;2022-07-12T03:44:28;1.63;;;1.50;;
19049;SDS011;9657;45.940;12.840;2022-07-12T03:46:55;2.17;;;1.55;;
19049;SDS011;9657;45.940;12.840;2022-07-12T03:49:23;1.77;;;1.58;;
19049;SDS011;9657;45.940;12.840;2022-07-12T03:51:50;2.78;;;1.85;;
19049;SDS011;9657;45.940;12.840;2022-07-12T03:54:17;2.05;;;1.85;;
19049;SDS011;9657;45.940;12.840;2022-07-12T03:56:46;3.10;;;1.80;;
19049;SDS011;9657;45.940;12.840;2022-07-12T03:59:44;1.95;;;1.80;;
19049;SDS011;9657;45.940;12.840;2022-07-12T04:02:12;1.58;;;1.48;;
19049;SDS011;9657;45.940;12.840;2022-07-12T04:04:39;1.83;;;1.73;;
19049;SDS011;9657;45.940;12.840;2022-07-12T04:07:07;2.65;;;1.63;;
19049;SDS011;9657;45.940;12.840;2022-07-12T04:09:34;1.83;;;1.40;;
19049;SDS011;9657;45.940;12.840;2022-07-12T04:12:02;1.80;;;1.70;;
19049;SDS011;9657;45.940;12.840;2022-07-12T04:14:30;3.08;;;2.08;;
19049;SDS011;9657;45.940;12.840;2022-07-12T04:16:58;1.58;;;1.42;;
19049;SDS011;9657;45.940;12.840;2022-07-12T04:19:25;1.88;;;1.60;;
19049;SDS011;9657;45.940;12.840;2022-07-12T04:21:53;1.60;;;1.50;;
19049;SDS011;9657;45.940;12.840;2022-07-12T04:24:20;1.60;;;1.50;;
19049;SDS011;9657;45.940;12.840;2022-07-12T04:26:48;1.70;;;1.40;;
19049;SDS011;9657;45.940;12.840;2022-07-12T04:29:16;1.83;;;1.50;;
19049;SDS011;9657;45.940;12.840;2022-07-12T04:31:43;1.67;;;1.48;;
19049;SDS011;9657;45.940;12.840;2022-07-12T04:34:11;1.90;;;1.40;;
19049;SDS011;9657;45.940;12.840;2022-07-12T04:36:42;1.77;;;1.55;;
19049;SDS011;9657;45.940;12.840;2022-07-12T04:39:09;1.77;;;1.42;;
19049;SDS011;9657;45.940;12.840;2022-07-12T04:41:36;2.05;;;1.50;;
19049;SDS011;9657;45.940;12.840;2022-07-12T04:44:03;2.40;;;1.90;;
19049;SDS011;9657;45.940;12.840;2022-07-12T04:46:32;1.63;;;1.52;;
19049;SDS011;9657;45.940;12.840;2022-07-12T04:48:59;1.77;;;1.63;;
19049;SDS011;9657;45.940;12.840;2022-07-12T04:51:26;2.80;;;1.80;;
19049;SDS011;9657;45.940;12.840;2022-07-12T04:53:54;1.90;;;1.63;;
19049;SDS011;9657;45.940;12.840;2022-07-12T04:56:21;3.30;;;1.92;;
19049;SDS011;9657;45.940;12.840;2022-07-12T04:58:48;4.35;;;2.10;;
19049;SDS011;9657;45.940;12.840;2022-07-12T05:01:15;4.60;;;2.20;;
19049;SDS011;9657;45.940;12.840;2022-07-12T05:03:44;3.35;;;2.10;;
19049;SDS011;9657;45.940;12.840;2022-07-12T05:06:12;3.08;;;1.88;;
19049;SDS011;9657;45.940;12.840;2022-07-12T05:08:39;2.60;;;1.92;;
19049;SDS011;9657;45.940;12.840;2022-07-12T05:11:06;2.28;;;2.08;;
19049;SDS011;9657;45.940;12.840;2022-07-12T05:13:33;3.15;;;1.80;;
19049;SDS011;9657;45.940;12.840;2022-07-12T05:16:00;3.03;;;1.90;;
19049;SDS011;9657;45.940;12.840;2022-07-12T05:18:27;3.78;;;2.08;;
19049;SDS011;9657;45.940;12.840;2022-07-12T05:20:56;3.08;;;1.90;;
19049;SDS011;9657;45.940;12.840;2022-07-12T05:23:23;2.65;;;2.13;;
19049;SDS011;9657;45.940;12.840;2022-07-12T05:25:50;3.45;;;2.15;;
19049;SDS011;9657;45.940;12.840;2022-07-12T05:28:17;2.75;;;2.10;;
19049;SDS011;9657;45.940;12.840;2022-07-12T05:30:45;3.42;;;2.33;;
19049;SDS011;9657;45.940;12.840;2022-07-12T05:33:12;2.40;;;2.20;;
19049;SDS011;9657;45.940;12.840;2022-07-12T05:35:39;2.42;;;1.98;;
19049;SDS011;9657;45.940;12.840;2022-07-12T05:38:08;2.50;;;2.28;;
19049;SDS011;9657;45.940;12.840;2022-07-12T05:40:35;3.22;;;2.22;;
19049;SDS011;9657;45.940;12.840;2022-07-12T05:43:02;4.57;;;2.65;;
19049;SDS011;9657;45.940;12.840;2022-07-12T05:45:29;2.58;;;2.38;;
19049;SDS011;9657;45.940;12.840;2022-07-12T05:47:56;3.53;;;2.20;;
19049;SDS011;9657;45.940;12.840;2022-07-12T05:50:23;3.00;;;2.33;;
19049;SDS011;9657;45.940;12.840;2022-07-12T05:52:51;4.75;;;2.40;;
19049;SDS011;9657;45.940;12.840;2022-07-12T05:55:37;3.25;;;2.03;;
19049;SDS011;9657;45.940;12.840;2022-07-12T05:58:04;4.15;;;2.22;;
19049;SDS011;9657;45.940;12.840;2022-07-12T06:00:31;2.55;;;2.13;;
19049;SDS011;9657;45.940;12.840;2022-07-12T06:02:58;2.72;;;2.30;;
19049;SDS011;9657;45.940;12.840;2022-07-12T06:05:25;3.20;;;2.10;;
19049;SDS011;9657;45.940;12.840;2022-07-12T06:07:52;2.53;;;1.92;;
19049;SDS011;9657;45.940;12.840;2022-07-12T06:10:19;3.25;;;2.30;;
19049;SDS011;9657;45.940;12.840;2022-07-12T06:12:48;3.78;;;2.25;;
19049;SDS011;9657;45.940;12.840;2022-07-12T06:15:15;2.95;;;2.42;;
19049;SDS011;9657;45.940;12.840;2022-07-12T06:17:42;2.35;;;2.13;;
19049;SDS011;9657;45.940;12.840;2022-07-12T06:20:10;2.60;;;2.10;;
19049;SDS011;9657;45.940;12.840;2022-07-12T06:22:37;3.08;;;2.08;;
19049;SDS011;9657;45.940;12.840;2022-07-12T06:25:05;2.95;;;2.42;;
19049;SDS011;9657;45.940;12.840;2022-07-12T06:27:33;4.55;;;2.50;;
19049;SDS011;9657;45.940;12.840;2022-07-12T06:30:01;4.28;;;2.10;;
19049;SDS011;9657;45.940;12.840;2022-07-12T06:32:29;3.05;;;2.55;;
19049;SDS011;9657;45.940;12.840;2022-07-12T06:34:56;4.93;;;2.17;;
19049;SDS011;9657;45.940;12.840;2022-07-12T06:37:23;3.00;;;1.90;;
19049;SDS011;9657;45.940;12.840;2022-07-12T06:39:50;2.60;;;2.22;;
19049;SDS011;9657;45.940;12.840;2022-07-12T06:42:17;3.65;;;2.50;;
19049;SDS011;9657;45.940;12.840;2022-07-12T06:44:44;3.58;;;2.22;;
19049;SDS011;9657;45.940;12.840;2022-07-12T06:47:13;4.10;;;2.53;;
19049;SDS011;9657;45.940;12.840;2022-07-12T06:49:40;4.82;;;2.38;;
19049;SDS011;9657;45.940;12.840;2022-07-12T06:52:07;3.55;;;2.00;;
19049;SDS011;9657;45.940;12.840;2022-07-12T06:54:34;2.95;;;2.30;;
19049;SDS011;9657;45.940;12.840;2022-07-12T06:57:01;2.75;;;2.15;;
19049;SDS011;9657;45.940;12.840;2022-07-12T06:59:28;2.38;;;2.10;;
19049;SDS011;9657;45.940;12.840;2022-07-12T07:01:55;3.42;;;2.13;;
19049;SDS011;9657;45.940;12.840;2022-07-12T07:04:24;2.78;;;2.10;;
19049;SDS011;9657;45.940;12.840;2022-07-12T07:06:51;2.70;;;1.85;;
19049;SDS011;9657;45.940;12.840;2022-07-12T07:09:18;4.13;;;2.22;;
19049;SDS011;9657;45.940;12.840;2022-07-12T07:11:45;4.60;;;2.10;;
19049;SDS011;9657;45.940;12.840;2022-07-12T07:14:12;2.40;;;1.77;;
19049;SDS011;9657;45.940;12.840;2022-07-12T07:16:40;4.68;;;1.75;;
19049;SDS011;9657;45.940;12.840;2022-07-12T07:19:07;2.63;;;1.65;;
19049;SDS011;9657;45.940;12.840;2022-07-12T07:21:35;2.22;;;1.70;;
19049;SDS011;9657;45.940;12.840;2022-07-12T07:24:02;2.60;;;2.03;;
19049;SDS011;9657;45.940;12.840;2022-07-12T07:26:29;1.95;;;1.73;;
19049;SDS011;9657;45.940;12.840;2022-07-12T07:28:57;3.67;;;1.85;;
19049;SDS011;9657;45.940;12.840;2022-07-12T07:31:42;3.78;;;1.90;;
19049;SDS011;9657;45.940;12.840;2022-07-12T07:34:09;3.22;;;1.60;;
19049;SDS011;9657;45.940;12.840;2022-07-12T07:36:38;2.25;;;1.77;;
19049;SDS011;9657;45.940;12.840;2022-07-12T07:39:05;4.35;;;1.80;;
19049;SDS011;9657;45.940;12.840;2022-07-12T07:41:32;2.50;;;1.70;;
19049;SDS011;9657;45.940;12.840;2022-07-12T07:44:00;3.20;;;1.45;;
19049;SDS011;9657;45.940;12.840;2022-07-12T07:46:27;3.55;;;1.63;;
19049;SDS011;9657;45.940;12.840;2022-07-12T07:48:54;1.65;;;1.50;;
19049;SDS011;9657;45.940;12.840;2022-07-12T07:51:21;2.70;;;1.83;;
19049;SDS011;9657;45.940;12.840;2022-07-12T07:53:49;2.53;;;1.67;;
19049;SDS011;9657;45.940;12.840;2022-07-12T07:56:16;2.65;;;1.63;;
19049;SDS011;9657;45.940;12.840;2022-07-12T07:58:43;4.10;;;2.10;;
19049;SDS011;9657;45.940;12.840;2022-07-12T08:01:10;2.55;;;1.77;;
19049;SDS011;9657;45.940;12.840;2022-07-12T08:03:37;4.22;;;1.48;;
19049;SDS011;9657;45.940;12.840;2022-07-12T08:06:05;3.67;;;1.95;;
19049;SDS011;9657;45.940;12.840;2022-07-12T08:08:32;6.95;;;2.33;;
19049;SDS011;9657;45.940;12.840;2022-07-12T08:11:01;3.63;;;1.85;;
19049;SDS011;9657;45.940;12.840;2022-07-12T08:13:28;3.88;;;1.60;;
19049;SDS011;9657;45.940;12.840;2022-07-12T08:15:55;4.55;;;1.60;;
19049;SDS011;9657;45.940;12.840;2022-07-12T08:18:22;3.90;;;1.77;;
19049;SDS011;9657;45.940;12.840;2022-07-12T08:20:49;4.38;;;1.80;;
19049;SDS011;9657;45.940;12.840;2022-07-12T08:23:16;3.88;;;1.77;;
19049;SDS011;9657;45.940;12.840;2022-07-12T08:25:43;3.50;;;1.60;;
19049;SDS011;9657;45.940;12.840;2022-07-12T08:28:12;2.20;;;1.98;;
19049;SDS011;9657;45.940;12.840;2022-07-12T08:30:39;2.65;;;1.50;;
19049;SDS011;9657;45.940;12.840;2022-07-12T08:33:06;2.88;;;1.52;;
19049;SDS011;9657;45.940;12.840;2022-07-12T08:35:33;3.00;;;1.80;;
19049;SDS011;9657;45.940;12.840;2022-07-12T08:38:00;2.28;;;1.15;;
19049;SDS011;9657;45.940;12.840;2022-07-12T08:40:27;4.43;;;1.73;;
19049;SDS011;9657;45.940;12.840;2022-07-12T08:42:56;2.30;;;1.80;;
19049;SDS011;9657;45.940;12.840;2022-07-12T08:45:26;2.55;;;1.52;;
19049;SDS011;9657;45.940;12.840;2022-07-12T08:47:54;2.47;;;1.48;;
19049;SDS011;9657;45.940;12.840;2022-07-12T08:50:21;1.42;;;1.30;;
19049;SDS011;9657;45.940;12.840;2022-07-12T08:52:50;5.70;;;1.90;;
19049;SDS011;9657;45.940;12.840;2022-07-12T08:55:18;2.42;;;2.13;;
19049;SDS011;9657;45.940;12.840;2022-07-12T08:57:47;2.13;;;1.50;;
19049;SDS011;9657;45.940;12.840;2022-07-12T09:00:15;3.55;;;1.67;;
19049;SDS011;9657;45.940;12.840;2022-07-12T09:02:45;3.13;;;1.30;;
19049;SDS011;9657;45.940;12.840;2022-07-12T09:05:13;2.67;;;1.88;;
19049;SDS011;9657;45.940;12.840;2022-07-12T09:07:41;4.82;;;1.58;;
19049;SDS011;9657;45.940;12.840;2022-07-12T09:10:09;2.33;;;1.52;;
19049;SDS011;9657;45.940;12.840;2022-07-12T09:12:37;1.30;;;1.20;;
19049;SDS011;9657;45.940;12.840;2022-07-12T09:15:12;2.30;;;1.40;;
19049;SDS011;9657;45.940;12.840;2022-07-12T09:20:29;2.38;;;1.63;;
19049;SDS011;9657;45.940;12.840;2022-07-12T09:22:58;4.20;;;1.60;;
19049;SDS011;9657;45.940;12.840;2022-07-12T09:25:26;2.45;;;1.40;;
19049;SDS011;9657;45.940;12.840;2022-07-12T09:27:54;1.40;;;1.13;;
19049;SDS011;9657;45.940;12.840;2022-07-12T09:30:22;1.55;;;1.42;;
19049;SDS011;9657;45.940;12.840;2022-07-12T09:32:54;2.60;;;1.30;;
19049;SDS011;9657;45.940;12.840;2022-07-12T09:35:43;3.35;;;1.35;;
19049;SDS011;9657;45.940;12.840;2022-07-12T09:38:33;1.65;;;1.30;;
19049;SDS011;9657;45.940;12.840;2022-07-12T09:41:01;1.40;;;1.13;;
19049;SDS011;9657;45.940;12.840;2022-07-12T09:43:28;1.65;;;1.35;;
19049;SDS011;9657;45.940;12.840;2022-07-12T09:45:55;1.58;;;1.38;;
19049;SDS011;9657;45.940;12.840;2022-07-12T09:48:22;2.35;;;1.48;;
19049;SDS011;9657;45.940;12.840;2022-07-12T09:50:51;1.55;;;1.45;;
19049;SDS011;9657;45.940;12.840;2022-07-12T09:53:22;1.42;;;1.33;;
19049;SDS011;9657;45.940;12.840;2022-07-12T09:55:53;1.45;;;1.27;;
19049;SDS011;9657;45.940;12.840;2022-07-12T09:58:25;2.63;;;1.48;;
19049;SDS011;9657;45.940;12.840;2022-07-12T10:00:53;2.60;;;1.20;;
19049;SDS011;9657;45.940;12.840;2022-07-12T10:03:25;2.28;;;1.38;;
19049;SDS011;9657;45.940;12.840;2022-07-12T10:05:56;4.68;;;1.40;;
19049;SDS011;9657;45.940;12.840;2022-07-12T10:08:25;2.33;;;1.48;;
19049;SDS011;9657;45.940;12.840;2022-07-12T10:10:52;1.70;;;1.33;;
19049;SDS011;9657;45.940;12.840;2022-07-12T10:13:20;2.17;;;1.30;;
19049;SDS011;9657;45.940;12.840;2022-07-12T10:15:48;2.50;;;1.38;;
19049;SDS011;9657;45.940;12.840;2022-07-12T10:18:17;2.00;;;1.30;;
19049;SDS011;9657;45.940;12.840;2022-07-12T10:20:45;2.63;;;1.30;;
19049;SDS011;9657;45.940;12.840;2022-07-12T10:29:03;1.77;;;1.67;;
19049;SDS011;9657;45.940;12.840;2022-07-12T10:31:32;1.77;;;1.50;;
19049;SDS011;9657;45.940;12.840;2022-07-12T10:34:10;2.22;;;1.50;;
19049;SDS011;9657;45.940;12.840;2022-07-12T10:39:36;2.45;;;1.50;;
19049;SDS011;9657;45.940;12.840;2022-07-12T10:42:13;1.77;;;1.52;;
19049;SDS011;9657;45.940;12.840;2022-07-12T10:44:42;2.90;;;1.60;;
19049;SDS011;9657;45.940;12.840;2022-07-12T10:47:11;2.67;;;1.60;;
19049;SDS011;9657;45.940;12.840;2022-07-12T10:49:43;2.25;;;1.45;;
19049;SDS011;9657;45.940;12.840;2022-07-12T10:52:17;1.88;;;1.73;;
19049;SDS011;9657;45.940;12.840;2022-07-12T10:57:44;1.92;;;1.83;;
19049;SDS011;9657;45.940;12.840;2022-07-12T11:00:17;1.75;;;1.40;;
19049;SDS011;9657;45.940;12.840;2022-07-12T11:02:46;3.17;;;1.73;;
19049;SDS011;9657;45.940;12.840;2022-07-12T11:05:13;1.50;;;1.40;;
19049;SDS011;9657;45.940;12.840;2022-07-12T11:07:40;1.95;;;1.67;;
19049;SDS011;9657;45.940;12.840;2022-07-12T11:10:11;2.00;;;1.75;;
19049;SDS011;9657;45.940;12.840;2022-07-12T11:12:40;2.60;;;1.60;;
19049;SDS011;9657;45.940;12.840;2022-07-12T11:15:07;3.10;;;1.67;;
19049;SDS011;9657;45.940;12.840;2022-07-12T11:17:35;1.95;;;1.77;;
19049;SDS011;9657;45.940;12.840;2022-07-12T11:20:03;2.35;;;1.60;;
19049;SDS011;9657;45.940;12.840;2022-07-12T11:22:36;2.30;;;1.77;;
19049;SDS011;9657;45.940;12.840;2022-07-12T11:25:05;2.30;;;1.73;;
19049;SDS011;9657;45.940;12.840;2022-07-12T11:27:34;1.95;;;1.65;;
19049;SDS011;9657;45.940;12.840;2022-07-12T11:30:03;1.80;;;1.70;;
19049;SDS011;9657;45.940;12.840;2022-07-12T11:32:34;3.15;;;1.50;;
19049;SDS011;9657;45.940;12.840;2022-07-12T11:35:03;1.60;;;1.30;;
19049;SDS011;9657;45.940;12.840;2022-07-12T11:37:31;2.30;;;1.65;;
19049;SDS011;9657;45.940;12.840;2022-07-12T11:39:58;3.38;;;1.70;;
19049;SDS011;9657;45.940;12.840;2022-07-12T11:42:25;1.50;;;1.40;;
19049;SDS011;9657;45.940;12.840;2022-07-12T11:44:52;2.22;;;1.73;;
19049;SDS011;9657;45.940;12.840;2022-07-12T11:47:21;2.50;;;1.80;;
19049;SDS011;9657;45.940;12.840;2022-07-12T11:49:49;2.22;;;2.05;;
19049;SDS011;9657;45.940;12.840;2022-07-12T11:52:17;1.80;;;1.70;;
19049;SDS011;9657;45.940;12.840;2022-07-12T11:54:46;2.05;;;1.85;;
19049;SDS011;9657;45.940;12.840;2022-07-12T11:57:13;2.45;;;1.63;;
19049;SDS011;9657;45.940;12.840;2022-07-12T11:59:41;2.35;;;1.30;;
19049;SDS011;9657;45.940;12.840;2022-07-12T12:02:09;1.70;;;1.60;;
19049;SDS011;9657;45.940;12.840;2022-07-12T12:04:45;3.35;;;1.92;;
19049;SDS011;9657;45.940;12.840;2022-07-12T12:07:14;2.38;;;1.30;;
19049;SDS011;9657;45.940;12.840;2022-07-12T12:12:28;1.95;;;1.35;;
19049;SDS011;9657;45.940;12.840;2022-07-12T12:15:02;1.30;;;1.20;;
19049;SDS011;9657;45.940;12.840;2022-07-12T12:17:31;3.17;;;1.65;;
19049;SDS011;9657;45.940;12.840;2022-07-12T12:20:03;1.88;;;1.73;;
19049;SDS011;9657;45.940;12.840;2022-07-12T12:22:37;1.95;;;1.77;;
19049;SDS011;9657;45.940;12.840;2022-07-12T12:25:05;1.77;;;1.67;;
19049;SDS011;9657;45.940;12.840;2022-07-12T12:27:42;2.58;;;1.80;;
19049;SDS011;9657;45.940;12.840;2022-07-12T12:30:10;5.22;;;1.77;;
19049;SDS011;9657;45.940;12.840;2022-07-12T12:32:47;2.97;;;1.70;;
19049;SDS011;9657;45.940;12.840;2022-07-12T12:35:18;3.15;;;1.73;;
19049;SDS011;9657;45.940;12.840;2022-07-12T12:37:50;2.20;;;1.65;;
19049;SDS011;9657;45.940;12.840;2022-07-12T12:40:19;1.70;;;1.60;;
19049;SDS011;9657;45.940;12.840;2022-07-12T12:42:47;3.03;;;1.80;;
19049;SDS011;9657;45.940;12.840;2022-07-12T12:45:18;2.20;;;1.67;;
19049;SDS011;9657;45.940;12.840;2022-07-12T12:47:52;2.35;;;2.05;;
19049;SDS011;9657;45.940;12.840;2022-07-12T12:50:38;2.80;;;2.00;;
19049;SDS011;9657;45.940;12.840;2022-07-12T12:53:07;2.05;;;1.90;;
19049;SDS011;9657;45.940;12.840;2022-07-12T12:55:38;2.17;;;1.92;;
19049;SDS011;9657;45.940;12.840;2022-07-12T12:58:06;2.22;;;1.60;;
19049;SDS011;9657;45.940;12.840;2022-07-12T13:00:34;3.28;;;1.70;;
19049;SDS011;9657;45.940;12.840;2022-07-12T13:03:04;2.13;;;1.95;;
19049;SDS011;9657;45.940;12.840;2022-07-12T13:05:31;2.55;;;2.03;;
19049;SDS011;9657;45.940;12.840;2022-07-12T13:08:00;3.05;;;1.80;;
19049;SDS011;9657;45.940;12.840;2022-07-12T13:10:27;2.15;;;1.67;;
19049;SDS011;9657;45.940;12.840;2022-07-12T13:12:55;2.60;;;1.85;;
19049;SDS011;9657;45.940;12.840;2022-07-12T13:15:22;2.55;;;1.80;;
19049;SDS011;9657;45.940;12.840;2022-07-12T13:17:49;2.25;;;1.80;;
19049;SDS011;9657;45.940;12.840;2022-07-12T13:20:16;2.58;;;1.65;;
19049;SDS011;9657;45.940;12.840;2022-07-12T13:22:44;1.75;;;1.58;;
19049;SDS011;9657;45.940;12.840;2022-07-12T13:25:13;2.08;;;1.85;;
19049;SDS011;9657;45.940;12.840;2022-07-12T13:27:41;1.70;;;1.60;;
19049;SDS011;9657;45.940;12.840;2022-07-12T13:30:11;2.63;;;1.67;;
19049;SDS011;9657;45.940;12.840;2022-07-12T13:32:39;1.92;;;1.55;;
19049;SDS011;9657;45.940;12.840;2022-07-12T13:35:07;2.17;;;1.98;;
19049;SDS011;9657;45.940;12.840;2022-07-12T13:37:35;3.90;;;2.33;;
19049;SDS011;9657;45.940;12.840;2022-07-12T13:40:04;2.65;;;2.00;;
19049;SDS011;9657;45.940;12.840;2022-07-12T13:42:41;1.95;;;1.85;;
19049;SDS011;9657;45.940;12.840;2022-07-12T13:45:10;2.10;;;1.95;;
19049;SDS011;9657;45.940;12.840;2022-07-12T13:47:39;2.30;;;1.75;;
19049;SDS011;9657;45.940;12.840;2022-07-12T13:50:08;1.92;;;1.60;;
19049;SDS011;9657;45.940;12.840;2022-07-12T13:52:36;2.17;;;1.92;;
19049;SDS011;9657;45.940;12.840;2022-07-12T13:55:04;1.83;;;1.73;;
19049;SDS011;9657;45.940;12.840;2022-07-12T13:57:31;2.28;;;1.90;;
19049;SDS011;9657;45.940;12.840;2022-07-12T14:00:01;1.70;;;1.60;;
19049;SDS011;9657;45.940;12.840;2022-07-12T14:02:30;2.30;;;1.80;;
19049;SDS011;9657;45.940;12.840;2022-07-12T14:04:57;2.20;;;1.70;;
19049;SDS011;9657;45.940;12.840;2022-07-12T14:07:24;1.92;;;1.55;;
19049;SDS011;9657;45.940;12.840;2022-07-12T14:09:51;1.80;;;1.70;;
19049;SDS011;9657;45.940;12.840;2022-07-12T14:12:18;2.15;;;1.95;;
19049;SDS011;9657;45.940;12.840;2022-07-12T14:14:45;1.98;;;1.75;;
19049;SDS011;9657;45.940;12.840;2022-07-12T14:17:31;3.35;;;1.95;;
19049;SDS011;9657;45.940;12.840;2022-07-12T14:19:59;3.35;;;1.70;;
19049;SDS011;9657;45.940;12.840;2022-07-12T14:22:27;2.55;;;1.63;;
19049;SDS011;9657;45.940;12.840;2022-07-12T14:24:54;1.83;;;1.65;;
19049;SDS011;9657;45.940;12.840;2022-07-12T14:27:22;1.98;;;1.73;;
19049;SDS011;9657;45.940;12.840;2022-07-12T14:29:49;2.30;;;2.10;;
19049;SDS011;9657;45.940;12.840;2022-07-12T14:32:16;1.92;;;1.80;;
19049;SDS011;9657;45.940;12.840;2022-07-12T14:34:44;2.42;;;2.08;;
19049;SDS011;9657;45.940;12.840;2022-07-12T14:37:11;3.45;;;1.70;;
19049;SDS011;9657;45.940;12.840;2022-07-12T14:39:38;2.30;;;1.95;;
19049;SDS011;9657;45.940;12.840;2022-07-12T14:42:05;2.28;;;1.70;;
19049;SDS011;9657;45.940;12.840;2022-07-12T14:44:32;2.50;;;1.80;;
19049;SDS011;9657;45.940;12.840;2022-07-12T14:47:00;1.70;;;1.52;;
19049;SDS011;9657;45.940;12.840;2022-07-12T14:49:27;1.85;;;1.73;;
19049;SDS011;9657;45.940;12.840;2022-07-12T14:51:55;1.83;;;1.73;;
19049;SDS011;9657;45.940;12.840;2022-07-12T14:54:22;2.45;;;1.60;;
19049;SDS011;9657;45.940;12.840;2022-07-12T14:56:49;2.25;;;1.85;;
19049;SDS011;9657;45.940;12.840;2022-07-12T14:59:17;2.25;;;1.67;;
19049;SDS011;9657;45.940;12.840;2022-07-12T15:01:44;1.75;;;1.52;;
19049;SDS011;9657;45.940;12.840;2022-07-12T15:04:11;2.38;;;1.75;;
19049;SDS011;9657;45.940;12.840;2022-07-12T15:06:38;1.80;;;1.70;;
19049;SDS011;9657;45.940;12.840;2022-07-12T15:09:06;1.88;;;1.70;;
19049;SDS011;9657;45.940;12.840;2022-07-12T15:11:33;1.70;;;1.60;;
19049;SDS011;9657;45.940;12.840;2022-07-12T15:14:01;2.58;;;1.70;;